sensor_id;sensor_type;location;lat;lon;timestamp;P1;durP1;ratioP1;P2;durP2;ratioP2
23236;SDS011;11787;52.018;8.570;2022-09-30T00:01:42;12.05;;;7.40;;
23236;SDS011;11787;52.018;8.570;2022-09-30T00:04:09;8.88;;;7.93;;
23236;SDS011;11787;52.018;8.570;2022-09-30T00:06:39;8.43;;;7.45;;
23236;SDS011;11787;52.018;8.570;2022-09-30T00:09:05;9.35;;;8.10;;
23236;SDS011;11787;52.018;8.570;2022-09-30T00:11:31;9.30;;;7.57;;
23236;SDS011;11787;52.018;8.570;2022-09-30T00:13:59;8.52;;;7.47;;
23236;SDS011;11787;52.018;8.570;2022-09-30T00:16:26;11.00;;;8.95;;
23236;SDS011;11787;52.018;8.570;2022-09-30T00:18:54;9.65;;;8.10;;
23236;SDS011;11787;52.018;8.570;2022-09-30T00:21:23;8.70;;;7.38;;
23236;SDS011;11787;52.018;8.570;2022-09-30T00:23:49;9.25;;;6.85;;
23236;SDS011;11787;52.018;8.570;2022-09-30T00:26:16;8.05;;;7.32;;
23236;SDS011;11787;52.018;8.570;2022-09-30T00:28:44;9.38;;;7.35;;
23236;SDS011;11787;52.018;8.570;2022-09-30T00:31:13;10.48;;;7.13;;
23236;SDS011;11787;52.018;8.570;2022-09-30T00:33:40;8.32;;;7.50;;
23236;SDS011;11787;52.018;8.570;2022-09-30T00:36:07;8.40;;;6.88;;
23236;SDS011;11787;52.018;8.570;2022-09-30T00:38:33;9.50;;;7.50;;
23236;SDS011;11787;52.018;8.570;2022-09-30T00:41:01;8.45;;;7.55;;
23236;SDS011;11787;52.018;8.570;2022-09-30T00:43:43;8.32;;;7.38;;
23236;SDS011;11787;52.018;8.570;2022-09-30T00:46:17;10.68;;;7.13;;
23236;SDS011;11787;52.018;8.570;2022-09-30T00:49:07;8.00;;;7.30;;
23236;SDS011;11787;52.018;8.570;2022-09-30T00:51:42;8.63;;;7.82;;
23236;SDS011;11787;52.018;8.570;2022-09-30T00:54:12;7.40;;;6.70;;
23236;SDS011;11787;52.018;8.570;2022-09-30T00:56:51;10.90;;;9.13;;
23236;SDS011;11787;52.018;8.570;2022-09-30T01:01:50;10.40;;;8.15;;
23236;SDS011;11787;52.018;8.570;2022-09-30T01:04:18;9.50;;;8.50;;
23236;SDS011;11787;52.018;8.570;2022-09-30T01:06:46;8.77;;;7.93;;
23236;SDS011;11787;52.018;8.570;2022-09-30T01:09:12;9.43;;;8.43;;
23236;SDS011;11787;52.018;8.570;2022-09-30T01:11:38;8.25;;;7.45;;
23236;SDS011;11787;52.018;8.570;2022-09-30T01:14:05;11.93;;;8.45;;
23236;SDS011;11787;52.018;8.570;2022-09-30T01:35:58;9.65;;;7.55;;
23236;SDS011;11787;52.018;8.570;2022-09-30T01:38:39;8.30;;;7.50;;
23236;SDS011;11787;52.018;8.570;2022-09-30T01:41:22;11.02;;;7.90;;
23236;SDS011;11787;52.018;8.570;2022-09-30T01:49:29;9.82;;;8.40;;
23236;SDS011;11787;52.018;8.570;2022-09-30T01:52:14;9.63;;;8.40;;
23236;SDS011;11787;52.018;8.570;2022-09-30T01:57:47;10.18;;;8.05;;
23236;SDS011;11787;52.018;8.570;2022-09-30T02:00:20;9.73;;;8.32;;
23236;SDS011;11787;52.018;8.570;2022-09-30T02:02:47;9.60;;;8.50;;
23236;SDS011;11787;52.018;8.570;2022-09-30T02:05:19;10.30;;;9.15;;
23236;SDS011;11787;52.018;8.570;2022-09-30T02:07:53;10.75;;;8.40;;
23236;SDS011;11787;52.018;8.570;2022-09-30T02:10:49;8.20;;;7.43;;
23236;SDS011;11787;52.018;8.570;2022-09-30T02:13:43;8.07;;;7.28;;
23236;SDS011;11787;52.018;8.570;2022-09-30T02:16:14;9.80;;;8.50;;
23236;SDS011;11787;52.018;8.570;2022-09-30T02:18:47;9.20;;;7.78;;
23236;SDS011;11787;52.018;8.570;2022-09-30T02:21:21;9.80;;;8.20;;
23236;SDS011;11787;52.018;8.570;2022-09-30T02:23:52;10.25;;;7.55;;
23236;SDS011;11787;52.018;8.570;2022-09-30T02:26:24;12.40;;;7.80;;
23236;SDS011;11787;52.018;8.570;2022-09-30T02:28:58;8.23;;;7.38;;
23236;SDS011;11787;52.018;8.570;2022-09-30T02:31:30;8.20;;;7.03;;
23236;SDS011;11787;52.018;8.570;2022-09-30T02:34:18;8.68;;;7.22;;
23236;SDS011;11787;52.018;8.570;2022-09-30T02:37:00;8.82;;;6.55;;
23236;SDS011;11787;52.018;8.570;2022-09-30T02:42:16;7.97;;;7.18;;
23236;SDS011;11787;52.018;8.570;2022-09-30T02:44:46;8.45;;;7.45;;
23236;SDS011;11787;52.018;8.570;2022-09-30T02:47:29;7.97;;;7.10;;
23236;SDS011;11787;52.018;8.570;2022-09-30T02:50:08;8.60;;;7.70;;
23236;SDS011;11787;52.018;8.570;2022-09-30T03:00:38;8.13;;;7.05;;
23236;SDS011;11787;52.018;8.570;2022-09-30T03:03:06;10.23;;;7.53;;
23236;SDS011;11787;52.018;8.570;2022-09-30T03:05:41;7.97;;;7.07;;
23236;SDS011;11787;52.018;8.570;2022-09-30T03:08:07;8.73;;;7.78;;
23236;SDS011;11787;52.018;8.570;2022-09-30T03:10:32;8.20;;;7.40;;
23236;SDS011;11787;52.018;8.570;2022-09-30T03:13:20;9.32;;;7.07;;
23236;SDS011;11787;52.018;8.570;2022-09-30T03:23:48;9.52;;;8.50;;
23236;SDS011;11787;52.018;8.570;2022-09-30T03:26:42;11.70;;;9.00;;
23236;SDS011;11787;52.018;8.570;2022-09-30T03:31:56;10.27;;;9.27;;
23236;SDS011;11787;52.018;8.570;2022-09-30T03:34:28;10.98;;;9.80;;
23236;SDS011;11787;52.018;8.570;2022-09-30T03:39:56;8.93;;;8.02;;
23236;SDS011;11787;52.018;8.570;2022-09-30T03:42:31;8.68;;;7.38;;
23236;SDS011;11787;52.018;8.570;2022-09-30T03:47:43;12.00;;;7.85;;
23236;SDS011;11787;52.018;8.570;2022-09-30T03:50:13;9.02;;;7.55;;
23236;SDS011;11787;52.018;8.570;2022-09-30T03:52:48;9.02;;;7.72;;
23236;SDS011;11787;52.018;8.570;2022-09-30T03:55:14;8.43;;;6.80;;
23236;SDS011;11787;52.018;8.570;2022-09-30T03:57:41;8.27;;;7.15;;
23236;SDS011;11787;52.018;8.570;2022-09-30T04:00:09;8.60;;;7.35;;
23236;SDS011;11787;52.018;8.570;2022-09-30T04:02:35;9.48;;;6.97;;
23236;SDS011;11787;52.018;8.570;2022-09-30T04:05:02;8.23;;;7.05;;
23236;SDS011;11787;52.018;8.570;2022-09-30T04:07:28;8.43;;;6.80;;
23236;SDS011;11787;52.018;8.570;2022-09-30T04:09:53;8.00;;;6.72;;
23236;SDS011;11787;52.018;8.570;2022-09-30T04:12:20;8.07;;;6.57;;
23236;SDS011;11787;52.018;8.570;2022-09-30T04:14:45;8.02;;;7.22;;
23236;SDS011;11787;52.018;8.570;2022-09-30T04:17:11;7.97;;;7.18;;
23236;SDS011;11787;52.018;8.570;2022-09-30T04:19:37;9.18;;;7.82;;
23236;SDS011;11787;52.018;8.570;2022-09-30T04:22:04;9.93;;;7.72;;
23236;SDS011;11787;52.018;8.570;2022-09-30T04:24:30;9.02;;;7.18;;
23236;SDS011;11787;52.018;8.570;2022-09-30T04:26:56;9.55;;;7.57;;
23236;SDS011;11787;52.018;8.570;2022-09-30T04:29:21;8.80;;;7.53;;
23236;SDS011;11787;52.018;8.570;2022-09-30T04:31:47;10.07;;;8.52;;
23236;SDS011;11787;52.018;8.570;2022-09-30T04:34:13;9.43;;;7.80;;
23236;SDS011;11787;52.018;8.570;2022-09-30T04:36:39;9.63;;;7.70;;
23236;SDS011;11787;52.018;8.570;2022-09-30T04:39:04;11.43;;;8.23;;
23236;SDS011;11787;52.018;8.570;2022-09-30T04:41:30;10.18;;;8.02;;
23236;SDS011;11787;52.018;8.570;2022-09-30T04:43:58;10.10;;;9.07;;
23236;SDS011;11787;52.018;8.570;2022-09-30T04:46:24;9.80;;;8.20;;
23236;SDS011;11787;52.018;8.570;2022-09-30T04:48:50;9.10;;;7.90;;
23236;SDS011;11787;52.018;8.570;2022-09-30T04:51:22;11.48;;;8.95;;
23236;SDS011;11787;52.018;8.570;2022-09-30T04:53:47;10.90;;;8.93;;
23236;SDS011;11787;52.018;8.570;2022-09-30T04:56:13;13.52;;;9.05;;
23236;SDS011;11787;52.018;8.570;2022-09-30T04:58:40;12.55;;;8.65;;
23236;SDS011;11787;52.018;8.570;2022-09-30T05:01:07;10.73;;;9.25;;
23236;SDS011;11787;52.018;8.570;2022-09-30T05:03:38;8.73;;;7.82;;
23236;SDS011;11787;52.018;8.570;2022-09-30T05:06:04;9.77;;;8.70;;
23236;SDS011;11787;52.018;8.570;2022-09-30T05:08:31;9.48;;;8.48;;
23236;SDS011;11787;52.018;8.570;2022-09-30T05:11:05;8.52;;;7.68;;
23236;SDS011;11787;52.018;8.570;2022-09-30T05:13:35;8.63;;;7.70;;
23236;SDS011;11787;52.018;8.570;2022-09-30T05:16:03;11.02;;;8.18;;
23236;SDS011;11787;52.018;8.570;2022-09-30T05:18:29;8.68;;;7.80;;
23236;SDS011;11787;52.018;8.570;2022-09-30T05:20:56;9.45;;;8.50;;
23236;SDS011;11787;52.018;8.570;2022-09-30T05:23:22;9.60;;;8.57;;
23236;SDS011;11787;52.018;8.570;2022-09-30T05:25:49;9.38;;;7.97;;
23236;SDS011;11787;52.018;8.570;2022-09-30T05:28:15;10.73;;;9.63;;
23236;SDS011;11787;52.018;8.570;2022-09-30T05:30:41;10.20;;;8.52;;
23236;SDS011;11787;52.018;8.570;2022-09-30T05:33:08;9.40;;;8.40;;
23236;SDS011;11787;52.018;8.570;2022-09-30T05:35:34;8.80;;;7.90;;
23236;SDS011;11787;52.018;8.570;2022-09-30T05:38:00;13.32;;;9.18;;
23236;SDS011;11787;52.018;8.570;2022-09-30T05:40:27;11.30;;;8.82;;
23236;SDS011;11787;52.018;8.570;2022-09-30T05:42:55;12.65;;;8.70;;
23236;SDS011;11787;52.018;8.570;2022-09-30T05:45:22;11.82;;;10.45;;
23236;SDS011;11787;52.018;8.570;2022-09-30T05:47:49;10.43;;;8.13;;
23236;SDS011;11787;52.018;8.570;2022-09-30T05:50:19;10.10;;;8.57;;
23236;SDS011;11787;52.018;8.570;2022-09-30T05:52:46;10.63;;;9.55;;
23236;SDS011;11787;52.018;8.570;2022-09-30T05:55:13;11.60;;;8.93;;
23236;SDS011;11787;52.018;8.570;2022-09-30T05:57:43;12.02;;;9.32;;
23236;SDS011;11787;52.018;8.570;2022-09-30T06:00:12;10.07;;;8.80;;
23236;SDS011;11787;52.018;8.570;2022-09-30T06:02:37;10.18;;;9.15;;
23236;SDS011;11787;52.018;8.570;2022-09-30T06:05:04;10.60;;;9.07;;
23236;SDS011;11787;52.018;8.570;2022-09-30T06:07:32;9.77;;;8.40;;
23236;SDS011;11787;52.018;8.570;2022-09-30T06:09:58;10.32;;;8.65;;
23236;SDS011;11787;52.018;8.570;2022-09-30T06:12:24;8.82;;;7.93;;
23236;SDS011;11787;52.018;8.570;2022-09-30T06:14:52;10.50;;;8.63;;
23236;SDS011;11787;52.018;8.570;2022-09-30T06:17:18;9.80;;;8.43;;
23236;SDS011;11787;52.018;8.570;2022-09-30T06:19:45;10.85;;;8.60;;
23236;SDS011;11787;52.018;8.570;2022-09-30T06:22:10;9.93;;;7.80;;
23236;SDS011;11787;52.018;8.570;2022-09-30T06:24:36;13.45;;;8.30;;
23236;SDS011;11787;52.018;8.570;2022-09-30T06:27:01;9.82;;;7.93;;
23236;SDS011;11787;52.018;8.570;2022-09-30T06:29:27;13.50;;;9.77;;
23236;SDS011;11787;52.018;8.570;2022-09-30T06:31:52;13.68;;;10.20;;
23236;SDS011;11787;52.018;8.570;2022-09-30T06:34:18;10.75;;;8.75;;
23236;SDS011;11787;52.018;8.570;2022-09-30T06:36:44;11.23;;;8.73;;
23236;SDS011;11787;52.018;8.570;2022-09-30T06:39:09;13.82;;;8.73;;
23236;SDS011;11787;52.018;8.570;2022-09-30T06:41:35;11.98;;;9.57;;
23236;SDS011;11787;52.018;8.570;2022-09-30T06:44:07;10.32;;;8.85;;
23236;SDS011;11787;52.018;8.570;2022-09-30T06:46:33;14.00;;;10.52;;
23236;SDS011;11787;52.018;8.570;2022-09-30T06:48:59;9.18;;;8.32;;
23236;SDS011;11787;52.018;8.570;2022-09-30T06:51:25;11.45;;;9.02;;
23236;SDS011;11787;52.018;8.570;2022-09-30T06:53:53;11.70;;;10.45;;
23236;SDS011;11787;52.018;8.570;2022-09-30T06:56:20;12.80;;;11.32;;
23236;SDS011;11787;52.018;8.570;2022-09-30T06:58:46;10.32;;;9.27;;
23236;SDS011;11787;52.018;8.570;2022-09-30T07:01:12;10.73;;;9.02;;
23236;SDS011;11787;52.018;8.570;2022-09-30T07:03:39;14.20;;;10.32;;
23236;SDS011;11787;52.018;8.570;2022-09-30T07:06:06;11.30;;;10.13;;
23236;SDS011;11787;52.018;8.570;2022-09-30T07:08:33;10.48;;;9.38;;
23236;SDS011;11787;52.018;8.570;2022-09-30T07:11:00;11.73;;;9.13;;
23236;SDS011;11787;52.018;8.570;2022-09-30T07:13:29;12.75;;;10.57;;
23236;SDS011;11787;52.018;8.570;2022-09-30T07:15:55;12.48;;;11.18;;
23236;SDS011;11787;52.018;8.570;2022-09-30T07:18:22;11.40;;;9.73;;
23236;SDS011;11787;52.018;8.570;2022-09-30T07:20:51;10.10;;;9.10;;
23236;SDS011;11787;52.018;8.570;2022-09-30T07:23:19;10.20;;;9.20;;
23236;SDS011;11787;52.018;8.570;2022-09-30T07:25:52;12.93;;;9.90;;
23236;SDS011;11787;52.018;8.570;2022-09-30T07:28:21;12.82;;;10.20;;
23236;SDS011;11787;52.018;8.570;2022-09-30T07:30:51;10.88;;;9.77;;
23236;SDS011;11787;52.018;8.570;2022-09-30T07:33:19;13.27;;;10.23;;
23236;SDS011;11787;52.018;8.570;2022-09-30T07:35:51;12.70;;;9.40;;
23236;SDS011;11787;52.018;8.570;2022-09-30T07:38:18;11.45;;;9.85;;
23236;SDS011;11787;52.018;8.570;2022-09-30T07:40:55;10.43;;;8.77;;
23236;SDS011;11787;52.018;8.570;2022-09-30T07:43:24;12.32;;;10.10;;
23236;SDS011;11787;52.018;8.570;2022-09-30T07:45:52;10.35;;;8.23;;
23236;SDS011;11787;52.018;8.570;2022-09-30T07:48:19;11.50;;;9.20;;
23236;SDS011;11787;52.018;8.570;2022-09-30T07:51:07;14.80;;;11.20;;
23236;SDS011;11787;52.018;8.570;2022-09-30T07:53:35;10.88;;;9.35;;
23236;SDS011;11787;52.018;8.570;2022-09-30T07:56:04;12.50;;;9.10;;
23236;SDS011;11787;52.018;8.570;2022-09-30T07:58:30;9.88;;;8.57;;
23236;SDS011;11787;52.018;8.570;2022-09-30T08:00:56;9.20;;;8.30;;
23236;SDS011;11787;52.018;8.570;2022-09-30T08:03:22;9.32;;;8.32;;
23236;SDS011;11787;52.018;8.570;2022-09-30T08:05:48;10.48;;;8.30;;
23236;SDS011;11787;52.018;8.570;2022-09-30T08:08:19;8.77;;;7.82;;
23236;SDS011;11787;52.018;8.570;2022-09-30T08:10:45;8.52;;;7.35;;
23236;SDS011;11787;52.018;8.570;2022-09-30T08:13:10;9.20;;;8.07;;
23236;SDS011;11787;52.018;8.570;2022-09-30T08:15:38;9.63;;;7.55;;
23236;SDS011;11787;52.018;8.570;2022-09-30T08:18:04;8.82;;;7.45;;
23236;SDS011;11787;52.018;8.570;2022-09-30T08:20:30;8.40;;;7.55;;
23236;SDS011;11787;52.018;8.570;2022-09-30T08:22:56;9.50;;;7.60;;
23236;SDS011;11787;52.018;8.570;2022-09-30T08:25:28;10.20;;;7.88;;
23236;SDS011;11787;52.018;8.570;2022-09-30T08:27:54;10.35;;;7.90;;
23236;SDS011;11787;52.018;8.570;2022-09-30T08:30:19;10.95;;;7.90;;
23236;SDS011;11787;52.018;8.570;2022-09-30T08:32:45;11.15;;;7.88;;
23236;SDS011;11787;52.018;8.570;2022-09-30T08:35:11;9.70;;;7.53;;
23236;SDS011;11787;52.018;8.570;2022-09-30T08:37:37;10.60;;;8.13;;
23236;SDS011;11787;52.018;8.570;2022-09-30T08:40:03;9.40;;;8.40;;
23236;SDS011;11787;52.018;8.570;2022-09-30T08:45:21;13.80;;;9.07;;
23236;SDS011;11787;52.018;8.570;2022-09-30T08:53:27;10.45;;;9.05;;
23236;SDS011;11787;52.018;8.570;2022-09-30T08:55:57;11.27;;;9.00;;
23236;SDS011;11787;52.018;8.570;2022-09-30T08:58:31;10.60;;;9.43;;
23236;SDS011;11787;52.018;8.570;2022-09-30T09:01:14;11.52;;;10.32;;
23236;SDS011;11787;52.018;8.570;2022-09-30T09:03:43;12.68;;;9.50;;
23236;SDS011;11787;52.018;8.570;2022-09-30T09:06:14;12.57;;;9.63;;
23236;SDS011;11787;52.018;8.570;2022-09-30T09:09:01;12.00;;;10.05;;
23236;SDS011;11787;52.018;8.570;2022-09-30T09:14:50;10.98;;;9.25;;
23236;SDS011;11787;52.018;8.570;2022-09-30T09:17:36;12.48;;;9.80;;
23236;SDS011;11787;52.018;8.570;2022-09-30T09:23:20;13.13;;;9.13;;
23236;SDS011;11787;52.018;8.570;2022-09-30T09:25:46;16.05;;;9.55;;
23236;SDS011;11787;52.018;8.570;2022-09-30T09:31:01;12.30;;;9.60;;
